createdAt,value
2022-11-03T00:00:18.020Z,959.28
2022-11-03T00:01:18.026Z,959.25
2022-11-03T00:02:18.129Z,959.21
2022-11-03T00:03:17.973Z,959.24
2022-11-03T00:04:17.955Z,959.22
2022-11-03T00:05:17.941Z,959.21
2022-11-03T00:06:17.925Z,959.2
2022-11-03T00:07:17.908Z,959.29
2022-11-03T00:08:17.893Z,959.25
2022-11-03T00:09:17.872Z,959.22
2022-11-03T00:10:17.859Z,959.24
2022-11-03T00:11:17.840Z,959.22
2022-11-03T00:12:17.826Z,959.19
2022-11-03T00:13:17.808Z,959.18
2022-11-03T00:14:17.793Z,959.18
2022-11-03T00:15:17.776Z,959.13
2022-11-03T00:16:17.759Z,959.16
2022-11-03T00:17:17.741Z,959.13
2022-11-03T00:18:17.751Z,959.15
2022-11-03T00:19:17.768Z,959.11
2022-11-03T00:20:17.696Z,959.13
2022-11-03T00:21:17.675Z,959.1
2022-11-03T00:22:17.664Z,959.1
2022-11-03T00:23:17.647Z,959.06
2022-11-03T00:24:17.625Z,959.09
2022-11-03T00:25:17.612Z,959.06
2022-11-03T00:26:17.595Z,959.04
2022-11-03T00:27:17.579Z,959.04
2022-11-03T00:28:17.560Z,958.98
2022-11-03T00:29:17.545Z,958.91
2022-11-03T00:30:17.529Z,958.93
2022-11-03T00:31:17.513Z,958.94
2022-11-03T00:32:17.495Z,958.9
2022-11-03T00:33:17.479Z,958.87
2022-11-03T00:34:17.550Z,958.84
2022-11-03T00:35:17.446Z,958.82
2022-11-03T00:36:17.430Z,958.82
2022-11-03T00:37:17.413Z,958.82
2022-11-03T00:38:17.396Z,958.85
2022-11-03T00:39:17.382Z,958.83
2022-11-03T00:40:17.364Z,958.83
2022-11-03T00:41:17.352Z,958.81
2022-11-03T00:42:17.330Z,958.84
2022-11-03T00:43:17.316Z,958.83
2022-11-03T00:44:17.299Z,958.85
2022-11-03T00:45:17.283Z,958.89
2022-11-03T00:46:17.266Z,958.89
2022-11-03T00:47:20.149Z,958.87
2022-11-03T00:48:17.232Z,958.88
2022-11-03T00:49:17.217Z,958.88
2022-11-03T00:50:17.223Z,958.89
2022-11-03T00:51:17.200Z,958.87
2022-11-03T00:52:17.167Z,958.83
2022-11-03T00:53:17.153Z,958.9
2022-11-03T00:54:17.143Z,958.86
2022-11-03T00:55:17.136Z,958.89
2022-11-03T00:56:17.125Z,958.88
2022-11-03T00:57:17.089Z,958.92
2022-11-03T00:58:17.071Z,958.87
2022-11-03T00:59:17.057Z,958.89
2022-11-03T01:00:17.045Z,958.88
2022-11-03T01:01:17.131Z,958.84
2022-11-03T01:02:17.115Z,958.82
2022-11-03T01:03:16.989Z,958.79
2022-11-03T01:04:16.973Z,958.85
2022-11-03T01:05:16.957Z,958.83
2022-11-03T01:06:16.966Z,958.83
2022-11-03T01:07:16.925Z,958.77
2022-11-03T01:08:16.906Z,958.71
2022-11-03T01:09:16.890Z,958.73
2022-11-03T01:10:16.874Z,958.74
2022-11-03T01:11:16.861Z,958.71
2022-11-03T01:12:16.842Z,958.71
2022-11-03T01:13:16.826Z,958.69
2022-11-03T01:14:16.809Z,958.69
2022-11-03T01:15:16.791Z,958.68
2022-11-03T01:16:16.775Z,958.69
2022-11-03T01:17:16.761Z,958.69
2022-11-03T01:18:16.747Z,958.69
2022-11-03T01:19:16.727Z,958.73
2022-11-03T01:20:16.713Z,958.67
2022-11-03T01:21:16.691Z,958.67
2022-11-03T01:22:16.701Z,958.66
2022-11-03T01:23:16.664Z,958.69
2022-11-03T01:24:16.648Z,958.7
2022-11-03T01:25:16.627Z,958.63
2022-11-03T01:26:16.612Z,958.69
2022-11-03T01:27:16.598Z,958.65
2022-11-03T01:28:16.580Z,958.71
2022-11-03T01:29:16.564Z,958.66
2022-11-03T01:30:16.563Z,958.68
2022-11-03T01:31:16.534Z,958.7
2022-11-03T01:32:16.515Z,958.6
2022-11-03T01:33:16.499Z,958.65
2022-11-03T01:34:16.481Z,958.57
2022-11-03T01:35:16.465Z,958.55
2022-11-03T01:36:16.448Z,958.55
2022-11-03T01:37:16.434Z,958.56
2022-11-03T01:38:17.015Z,958.52
2022-11-03T01:39:16.972Z,958.56
2022-11-03T01:40:16.959Z,958.47
2022-11-03T01:41:16.939Z,958.47
2022-11-03T01:42:16.923Z,958.39
2022-11-03T01:43:16.906Z,958.37
2022-11-03T01:44:16.893Z,958.32
2022-11-03T01:45:16.874Z,958.35
2022-11-03T01:46:16.857Z,958.37
2022-11-03T01:47:16.841Z,958.4
2022-11-03T01:48:16.829Z,958.34
2022-11-03T01:49:16.806Z,958.32
2022-11-03T01:50:16.798Z,958.29
2022-11-03T01:51:16.777Z,958.31
2022-11-03T01:52:16.761Z,958.33
2022-11-03T01:53:16.740Z,958.36
2022-11-03T01:54:16.749Z,958.27
2022-11-03T01:55:16.707Z,958.29
2022-11-03T01:56:16.696Z,958.28
2022-11-03T01:57:16.676Z,958.28
2022-11-03T01:58:16.659Z,958.27
2022-11-03T01:59:16.641Z,958.27
2022-11-03T02:00:16.626Z,958.23
2022-11-03T02:01:16.754Z,958.18
2022-11-03T02:02:16.708Z,958.18
2022-11-03T02:03:16.606Z,958.16
2022-11-03T02:04:16.560Z,958.12
2022-11-03T02:05:16.556Z,958.11
2022-11-03T02:06:16.528Z,958.07
2022-11-03T02:07:16.511Z,958.06
2022-11-03T02:08:16.493Z,957.99
2022-11-03T02:09:16.475Z,957.99
2022-11-03T02:10:16.491Z,958.02
2022-11-03T02:11:16.443Z,958.03
2022-11-03T02:12:16.424Z,957.97
2022-11-03T02:13:16.411Z,957.97
2022-11-03T02:14:16.391Z,957.95
2022-11-03T02:15:16.376Z,957.94
2022-11-03T02:16:16.357Z,957.97
2022-11-03T02:17:16.344Z,958.01
2022-11-03T02:18:16.324Z,957.98
2022-11-03T02:19:16.312Z,957.94
2022-11-03T02:20:16.291Z,957.97
2022-11-03T02:21:16.278Z,957.96
2022-11-03T02:22:16.259Z,957.9
2022-11-03T02:23:16.245Z,957.86
2022-11-03T02:24:16.224Z,957.82
2022-11-03T02:25:16.210Z,957.83
2022-11-03T02:26:16.217Z,957.79
2022-11-03T02:27:16.176Z,957.8
2022-11-03T02:28:16.166Z,957.77
2022-11-03T02:29:16.142Z,957.74
2022-11-03T02:30:16.130Z,957.75
2022-11-03T02:31:16.127Z,957.73
2022-11-03T02:32:16.090Z,957.68
2022-11-03T02:33:16.076Z,957.67
2022-11-03T02:34:16.057Z,957.67
2022-11-03T02:35:16.043Z,957.64
2022-11-03T02:36:16.026Z,957.61
2022-11-03T02:37:16.009Z,957.59
2022-11-03T02:38:15.990Z,957.52
2022-11-03T02:39:15.975Z,957.58
2022-11-03T02:40:15.955Z,957.52
2022-11-03T02:41:15.942Z,957.53
2022-11-03T02:42:15.947Z,957.5
2022-11-03T02:43:15.910Z,957.48
2022-11-03T02:44:15.892Z,957.45
2022-11-03T02:45:17.262Z,957.41
2022-11-03T02:46:15.856Z,957.33
2022-11-03T02:47:15.841Z,957.38
2022-11-03T02:48:15.821Z,957.36
2022-11-03T02:49:15.808Z,957.34
2022-11-03T02:50:15.790Z,957.38
2022-11-03T02:51:15.773Z,957.38
2022-11-03T02:52:15.753Z,957.43
2022-11-03T02:53:15.740Z,957.36
2022-11-03T02:54:15.722Z,957.34
2022-11-03T02:55:15.708Z,957.39
2022-11-03T02:56:15.686Z,957.36
2022-11-03T02:57:15.671Z,957.35
2022-11-03T02:58:15.682Z,957.27
2022-11-03T02:59:15.636Z,957.32
2022-11-03T03:00:15.621Z,957.3
2022-11-03T03:01:15.811Z,957.37
2022-11-03T03:02:15.645Z,957.34
2022-11-03T03:03:15.570Z,957.32
2022-11-03T03:04:15.554Z,957.33
2022-11-03T03:05:15.560Z,957.3
2022-11-03T03:06:15.523Z,957.32
2022-11-03T03:07:15.507Z,957.3
2022-11-03T03:08:15.485Z,957.3
2022-11-03T03:09:15.468Z,957.31
2022-11-03T03:10:15.455Z,957.27
2022-11-03T03:11:15.447Z,957.25
2022-11-03T03:12:15.422Z,957.3
2022-11-03T03:13:15.401Z,957.26
2022-11-03T03:14:15.412Z,957.21
2022-11-03T03:15:15.368Z,957.24
2022-11-03T03:16:15.354Z,957.23
2022-11-03T03:17:15.334Z,957.23
2022-11-03T03:18:15.319Z,957.23
2022-11-03T03:19:15.301Z,957.19
2022-11-03T03:20:15.288Z,957.19
2022-11-03T03:21:15.269Z,957.12
2022-11-03T03:22:15.253Z,957.12
2022-11-03T03:23:15.363Z,957.07
2022-11-03T03:24:15.219Z,957.12
2022-11-03T03:25:15.206Z,957.09
2022-11-03T03:26:15.187Z,957.06
2022-11-03T03:27:15.166Z,957.01
2022-11-03T03:28:15.151Z,957.03
2022-11-03T03:29:15.139Z,957
2022-11-03T03:30:15.143Z,956.98
2022-11-03T03:31:15.100Z,956.99
2022-11-03T03:32:15.084Z,956.94
2022-11-03T03:49:21.351Z,956.85
2022-11-03T03:50:21.308Z,956.82
2022-11-03T03:51:21.287Z,956.85
2022-11-03T03:52:21.268Z,956.81
2022-11-03T03:53:21.251Z,956.79
2022-11-03T03:54:21.231Z,956.78
2022-11-03T03:55:21.263Z,956.76
2022-11-03T03:56:21.194Z,956.7
2022-11-03T03:57:21.174Z,956.68
2022-11-03T03:58:21.160Z,956.66
2022-11-03T03:59:21.140Z,956.67
2022-11-03T04:00:21.123Z,956.66
2022-11-03T04:01:21.226Z,956.68
2022-11-03T04:02:21.164Z,956.64
2022-11-03T04:03:21.068Z,956.64
2022-11-03T04:04:21.051Z,956.6
2022-11-03T04:05:21.055Z,956.57
2022-11-03T04:06:21.018Z,956.56
2022-11-03T04:07:20.996Z,956.53
2022-11-03T04:08:20.981Z,956.55
2022-11-03T04:09:21.618Z,956.51
2022-11-03T04:10:21.604Z,956.51
2022-11-03T04:11:21.587Z,956.53
2022-11-03T04:12:21.571Z,956.55
2022-11-03T04:13:21.553Z,956.53
2022-11-03T04:14:21.535Z,956.49
2022-11-03T04:15:21.514Z,956.52
2022-11-03T04:16:21.499Z,956.54
2022-11-03T04:17:21.482Z,956.57
2022-11-03T04:18:21.466Z,956.54
2022-11-03T04:19:21.448Z,956.49
2022-11-03T04:20:21.432Z,956.53
2022-11-03T04:21:21.437Z,956.54
2022-11-03T04:22:21.419Z,956.51
2022-11-03T04:23:21.378Z,956.54
2022-11-03T04:24:21.365Z,956.55
2022-11-03T04:25:21.345Z,956.52
2022-11-03T04:26:21.330Z,956.51
2022-11-03T04:27:21.309Z,956.52
2022-11-03T04:28:21.296Z,956.51
2022-11-03T04:29:21.277Z,956.52
2022-11-03T04:30:21.267Z,956.5
2022-11-03T04:31:21.245Z,956.52
2022-11-03T04:32:21.230Z,956.5
2022-11-03T04:33:21.212Z,956.49
2022-11-03T04:34:21.195Z,956.51
2022-11-03T04:35:21.182Z,956.51
2022-11-03T04:36:21.161Z,956.48
2022-11-03T04:37:21.168Z,956.49
2022-11-03T04:38:21.126Z,956.53
2022-11-03T04:39:21.108Z,956.48
2022-11-03T04:40:21.097Z,956.52
2022-11-03T04:41:21.077Z,956.46
2022-11-03T04:42:21.057Z,956.48
2022-11-03T04:43:21.045Z,956.49
2022-11-03T04:44:21.024Z,956.45
2022-11-03T04:45:21.009Z,956.46
2022-11-03T04:46:20.989Z,956.45
2022-11-03T04:47:20.978Z,956.46
2022-11-03T04:48:20.957Z,956.46
2022-11-03T04:49:20.940Z,956.46
2022-11-03T04:50:20.926Z,956.44
2022-11-03T04:51:20.906Z,956.43
2022-11-03T04:52:20.889Z,956.41
2022-11-03T04:53:20.896Z,956.37
2022-11-03T04:54:20.855Z,956.36
2022-11-03T04:55:20.840Z,956.32
2022-11-03T04:56:20.820Z,956.3
2022-11-03T04:57:20.804Z,956.27
2022-11-03T04:58:20.788Z,956.24
2022-11-03T04:59:20.770Z,956.22
2022-11-03T05:00:20.754Z,956.23
2022-11-03T05:01:23.916Z,956.21
2022-11-03T05:02:20.720Z,956.17
2022-11-03T05:03:20.704Z,956.15
2022-11-03T05:04:20.683Z,956.15
2022-11-03T05:05:20.669Z,956.07
2022-11-03T05:06:20.651Z,956.08
2022-11-03T05:07:20.636Z,956.06
2022-11-03T05:08:20.619Z,956.03
2022-11-03T05:09:20.627Z,956.03
2022-11-03T05:10:20.583Z,956.04
2022-11-03T05:11:20.568Z,955.99
2022-11-03T05:12:20.547Z,955.96
2022-11-03T05:13:20.534Z,955.93
2022-11-03T05:14:20.518Z,955.91
2022-11-03T05:15:20.498Z,955.92
2022-11-03T05:16:20.479Z,955.88
2022-11-03T05:17:20.465Z,955.89
2022-11-03T05:18:20.447Z,955.82
2022-11-03T05:19:20.431Z,955.85
2022-11-03T05:20:20.411Z,955.79
2022-11-03T05:21:20.396Z,955.77
2022-11-03T05:22:20.380Z,955.7
2022-11-03T05:23:20.361Z,955.74
2022-11-03T05:24:20.344Z,955.68
2022-11-03T05:25:20.351Z,955.74
2022-11-03T05:26:20.310Z,955.66
2022-11-03T05:27:20.295Z,955.63
2022-11-03T05:28:20.274Z,955.59
2022-11-03T05:29:20.259Z,955.63
2022-11-03T05:30:20.241Z,955.53
2022-11-03T05:31:20.227Z,955.54
2022-11-03T05:32:20.211Z,955.5
2022-11-03T05:33:20.191Z,955.45
2022-11-03T05:34:20.175Z,955.46
2022-11-03T05:35:20.156Z,955.44
2022-11-03T05:36:20.140Z,955.47
2022-11-03T05:37:25.053Z,955.41
2022-11-03T05:38:20.108Z,955.39
2022-11-03T05:39:20.088Z,955.44
2022-11-03T05:40:20.073Z,955.41
2022-11-03T05:41:20.082Z,955.45
2022-11-03T05:42:20.040Z,955.42
2022-11-03T05:43:20.030Z,955.43
2022-11-03T05:44:20.004Z,955.4
2022-11-03T05:45:19.990Z,955.48
2022-11-03T05:46:19.975Z,955.42
2022-11-03T05:47:19.956Z,955.42
2022-11-03T05:48:19.936Z,955.42
2022-11-03T05:49:19.919Z,955.4
2022-11-03T05:50:19.903Z,955.39
2022-11-03T05:51:19.885Z,955.36
2022-11-03T05:52:19.872Z,955.38
2022-11-03T05:53:19.852Z,955.4
2022-11-03T05:54:19.956Z,955.38
2022-11-03T05:55:19.818Z,955.44
2022-11-03T05:56:19.804Z,955.36
2022-11-03T05:57:19.807Z,955.41
2022-11-03T05:58:19.770Z,955.34
2022-11-03T05:59:19.751Z,955.35
2022-11-03T06:00:19.736Z,955.33
2022-11-03T06:01:19.773Z,955.34
2022-11-03T06:02:19.787Z,955.26
2022-11-03T06:03:19.682Z,955.29
2022-11-03T06:04:19.668Z,955.27
2022-11-03T06:05:19.657Z,955.27
2022-11-03T06:06:19.634Z,955.25
2022-11-03T06:07:19.620Z,955.25
2022-11-03T06:08:19.641Z,955.27
2022-11-03T06:09:19.691Z,955.23
2022-11-03T06:10:19.677Z,955.24
2022-11-03T06:11:19.657Z,955.27
2022-11-03T06:12:19.644Z,955.22
2022-11-03T06:13:19.651Z,955.26
2022-11-03T06:14:21.353Z,955.17
2022-11-03T06:15:19.594Z,955.22
2022-11-03T06:16:19.576Z,955.25
2022-11-03T06:17:19.560Z,955.21
2022-11-03T06:18:19.543Z,955.2
2022-11-03T06:19:19.526Z,955.18
2022-11-03T06:20:19.516Z,955.22
2022-11-03T06:21:19.493Z,955.22
2022-11-03T06:22:19.477Z,955.19
2022-11-03T06:23:19.461Z,955.31
2022-11-03T06:24:19.442Z,955.23
2022-11-03T06:25:19.428Z,955.28
2022-11-03T06:26:19.409Z,955.26
2022-11-03T06:27:19.397Z,955.29
2022-11-03T06:28:19.384Z,955.24
2022-11-03T06:29:19.386Z,955.24
2022-11-03T06:30:19.347Z,955.2
2022-11-03T06:31:20.369Z,955.28
2022-11-03T06:32:19.318Z,955.29
2022-11-03T06:33:19.299Z,955.32
2022-11-03T06:34:19.281Z,955.31
2022-11-03T06:35:19.267Z,955.32
2022-11-03T06:36:19.249Z,955.37
2022-11-03T06:37:19.357Z,955.35
2022-11-03T06:38:19.339Z,955.35
2022-11-03T06:39:19.324Z,955.31
2022-11-03T06:40:19.308Z,955.3
2022-11-03T06:41:19.294Z,955.3
2022-11-03T06:42:19.277Z,955.28
2022-11-03T06:43:19.263Z,955.3
2022-11-03T06:44:19.242Z,955.32
2022-11-03T06:45:19.250Z,955.27
2022-11-03T06:46:19.212Z,955.25
2022-11-03T06:47:19.198Z,955.23
2022-11-03T06:48:19.182Z,955.23
2022-11-03T06:49:19.164Z,955.28
2022-11-03T06:50:19.146Z,955.26
2022-11-03T06:51:19.131Z,955.23
2022-11-03T06:52:19.115Z,955.23
2022-11-03T06:53:19.098Z,955.2
2022-11-03T06:54:19.081Z,955.26
2022-11-03T06:55:19.076Z,955.25
2022-11-03T06:56:19.049Z,955.21
2022-11-03T06:57:19.037Z,955.28
2022-11-03T06:58:19.019Z,955.26
2022-11-03T06:59:19.002Z,955.2
2022-11-03T07:00:33.413Z,955.23
2022-11-03T07:01:19.100Z,955.22
2022-11-03T07:02:19.012Z,955.14
2022-11-03T07:03:18.939Z,955.24
2022-11-03T07:04:18.922Z,955.12
2022-11-03T07:05:18.912Z,955.09
2022-11-03T07:06:18.894Z,955.16
2022-11-03T07:07:18.876Z,955.11
2022-11-03T07:08:18.860Z,955.13
2022-11-03T07:09:18.846Z,955.12
2022-11-03T07:10:18.829Z,955.07
2022-11-03T07:11:18.816Z,955.01
2022-11-03T07:12:18.799Z,955.01
2022-11-03T07:13:18.789Z,955.01
2022-11-03T07:14:18.768Z,955.01
2022-11-03T07:15:18.752Z,955.01
2022-11-03T07:16:19.011Z,955.09
2022-11-03T07:17:18.753Z,955.04
2022-11-03T07:18:18.705Z,955.08
2022-11-03T07:19:18.691Z,955.04
2022-11-03T07:20:18.676Z,955.07
2022-11-03T07:21:18.657Z,955.09
2022-11-03T07:22:18.648Z,955.01
2022-11-03T07:23:18.627Z,955.06
2022-11-03T07:24:18.615Z,954.98
2022-11-03T07:25:18.596Z,954.98
2022-11-03T07:26:18.583Z,954.93
2022-11-03T07:27:18.565Z,954.91
2022-11-03T07:28:18.552Z,954.96
2022-11-03T07:29:18.535Z,954.89
2022-11-03T07:30:18.523Z,954.94
2022-11-03T07:31:18.505Z,954.86
2022-11-03T07:32:18.492Z,954.94
2022-11-03T07:33:18.498Z,954.89
2022-11-03T07:34:18.461Z,954.9
2022-11-03T07:35:18.445Z,954.91
2022-11-03T07:36:18.429Z,954.86
2022-11-03T07:37:18.417Z,954.86
2022-11-03T07:38:18.401Z,954.81
2022-11-03T07:39:18.383Z,954.87
2022-11-03T07:40:18.370Z,954.82
2022-11-03T07:41:18.355Z,954.86
2022-11-03T07:42:18.365Z,954.82
2022-11-03T07:43:18.326Z,954.79
2022-11-03T07:44:19.025Z,954.8
2022-11-03T07:45:19.009Z,954.75
2022-11-03T07:46:18.998Z,954.77
2022-11-03T07:47:18.978Z,954.77
2022-11-03T07:48:18.967Z,954.75
2022-11-03T07:49:18.974Z,954.73
2022-11-03T07:50:18.935Z,954.71
2022-11-03T07:51:18.919Z,954.73
2022-11-03T07:52:18.908Z,954.72
2022-11-03T07:53:22.029Z,954.68
2022-11-03T07:54:18.877Z,954.66
2022-11-03T07:55:18.860Z,954.63
2022-11-03T07:56:18.909Z,954.67
2022-11-03T07:57:18.830Z,954.65
2022-11-03T07:58:18.817Z,954.71
2022-11-03T07:59:18.853Z,954.7
2022-11-03T08:00:18.788Z,954.61
2022-11-03T08:01:18.801Z,954.63
2022-11-03T08:02:18.903Z,954.67
2022-11-03T08:03:18.751Z,954.63
2022-11-03T08:04:18.730Z,954.64
2022-11-03T08:06:19.738Z,954.59
2022-11-03T08:07:18.684Z,954.51
2022-11-03T08:08:18.669Z,954.55
2022-11-03T08:09:18.657Z,954.51
2022-11-03T08:10:18.640Z,954.47
2022-11-03T08:11:19.095Z,954.5
2022-11-03T08:12:18.611Z,954.49
2022-11-03T08:13:18.601Z,954.4
2022-11-03T08:14:18.586Z,954.43
2022-11-03T08:15:18.569Z,954.43
2022-11-03T08:16:18.553Z,954.42
2022-11-03T08:17:18.540Z,954.34
2022-11-03T08:18:18.527Z,954.33
2022-11-03T08:19:18.514Z,954.33
2022-11-03T08:20:18.495Z,954.28
2022-11-03T08:21:18.506Z,954.29
2022-11-03T08:22:18.477Z,954.24
2022-11-03T08:23:26.575Z,954.19
2022-11-03T08:24:18.439Z,954.22
2022-11-03T08:25:18.426Z,954.16
2022-11-03T08:26:18.411Z,954.2
2022-11-03T08:27:18.401Z,954.13
2022-11-03T08:28:18.382Z,954.12
2022-11-03T08:29:18.371Z,954.13
2022-11-03T08:30:18.355Z,954.09
2022-11-03T08:31:18.340Z,954.16
2022-11-03T08:32:18.327Z,954.02
2022-11-03T08:33:18.369Z,954.04
2022-11-03T08:34:18.299Z,954.06
2022-11-03T08:35:18.286Z,954.05
2022-11-03T08:36:18.355Z,954
2022-11-03T08:37:18.285Z,953.96
2022-11-03T08:38:18.248Z,953.93
2022-11-03T08:39:18.234Z,953.92
2022-11-03T08:40:18.214Z,953.93
2022-11-03T08:41:18.203Z,953.91
2022-11-03T08:42:18.189Z,953.81
2022-11-03T08:43:18.175Z,953.96
2022-11-03T08:44:18.161Z,953.88
2022-11-03T08:45:18.148Z,953.84
2022-11-03T08:46:18.544Z,953.83
2022-11-03T08:47:18.120Z,953.84
2022-11-03T08:48:18.924Z,953.82
2022-11-03T08:49:18.909Z,953.81
2022-11-03T08:50:18.895Z,953.82
2022-11-03T08:51:18.885Z,953.79
2022-11-03T08:52:18.867Z,953.83
2022-11-03T08:53:18.880Z,953.82
2022-11-03T08:54:18.841Z,953.79
2022-11-03T08:55:18.829Z,953.76
2022-11-03T08:56:20.509Z,953.73
2022-11-03T08:57:18.801Z,953.67
2022-11-03T08:58:18.791Z,953.65
2022-11-03T08:59:18.777Z,953.69
2022-11-03T09:00:18.761Z,953.67
2022-11-03T09:01:18.825Z,953.66
2022-11-03T09:02:18.762Z,953.54
2022-11-03T09:03:18.778Z,953.61
2022-11-03T09:04:18.737Z,953.62
2022-11-03T09:05:18.695Z,953.56
2022-11-03T09:06:18.693Z,953.59
2022-11-03T09:07:18.701Z,953.56
2022-11-03T09:11:17.630Z,953.55
2022-11-03T09:12:17.617Z,953.48
2022-11-03T09:13:17.606Z,953.52
2022-11-03T09:14:17.592Z,953.45
2022-11-03T09:15:17.576Z,953.42
2022-11-03T09:16:17.631Z,953.45
2022-11-03T09:17:17.554Z,953.45
2022-11-03T09:18:17.543Z,953.44
2022-11-03T09:19:17.526Z,953.43
2022-11-03T09:20:17.515Z,953.42
2022-11-03T09:21:17.501Z,953.42
2022-11-03T09:22:17.492Z,953.42
2022-11-03T09:23:17.477Z,953.37
2022-11-03T09:24:17.470Z,953.26
2022-11-03T09:25:17.450Z,953.37
2022-11-03T09:26:17.520Z,953.35
2022-11-03T09:27:17.426Z,953.27
2022-11-03T09:28:17.416Z,953.31
2022-11-03T09:29:17.400Z,953.31
2022-11-03T09:30:17.388Z,953.2
2022-11-03T09:31:17.839Z,953.21
2022-11-03T09:32:22.923Z,953.24
2022-11-03T09:33:17.801Z,953.28
2022-11-03T09:34:17.788Z,953.23
2022-11-03T09:35:17.772Z,953.26
2022-11-03T09:36:17.760Z,953.23
2022-11-03T09:37:17.750Z,953.2
2022-11-03T09:38:17.736Z,953.19
2022-11-03T09:39:17.725Z,953.18
2022-11-03T09:40:17.713Z,953.18
2022-11-03T09:41:24.766Z,953.12
2022-11-03T09:42:17.713Z,953.16
2022-11-03T09:43:17.673Z,953.09
2022-11-03T09:44:17.665Z,953.04
2022-11-03T09:45:17.650Z,953.09
2022-11-03T09:46:17.641Z,953.05
2022-11-03T09:47:17.626Z,953.05
2022-11-03T09:48:17.618Z,953.07
2022-11-03T09:49:17.601Z,953.01
2022-11-03T09:50:17.583Z,953.03
2022-11-03T09:51:17.573Z,952.95
2022-11-03T09:52:17.561Z,952.95
2022-11-03T09:53:17.554Z,952.95
2022-11-03T09:54:17.538Z,952.9
2022-11-03T09:55:17.526Z,952.92
2022-11-03T09:56:17.514Z,952.87
2022-11-03T09:57:17.502Z,952.87
2022-11-03T09:58:17.511Z,952.83
2022-11-03T09:59:17.477Z,952.83
2022-11-03T10:00:17.466Z,952.84
2022-11-03T10:01:17.575Z,952.82
2022-11-03T10:02:17.565Z,952.8
2022-11-03T10:03:17.431Z,952.79
2022-11-03T10:04:17.418Z,952.77
2022-11-03T10:05:17.409Z,952.74
2022-11-03T10:06:17.406Z,952.71
2022-11-03T10:07:17.386Z,952.66
2022-11-03T10:08:19.885Z,952.69
2022-11-03T10:09:17.360Z,952.61
2022-11-03T10:10:17.359Z,952.57
2022-11-03T10:11:17.341Z,952.6
2022-11-03T10:12:17.324Z,952.51
2022-11-03T10:13:17.317Z,952.54
2022-11-03T10:14:17.336Z,952.54
2022-11-03T10:15:17.296Z,952.48
2022-11-03T10:16:17.287Z,952.51
2022-11-03T10:17:17.271Z,952.4
2022-11-03T10:18:17.262Z,952.42
2022-11-03T10:19:17.246Z,952.37
2022-11-03T10:20:17.236Z,952.39
2022-11-03T10:21:17.224Z,952.32
2022-11-03T10:22:17.220Z,952.29
2022-11-03T10:23:17.209Z,952.29
2022-11-03T10:24:17.203Z,952.29
2022-11-03T10:25:17.181Z,952.25
2022-11-03T10:26:17.172Z,952.25
2022-11-03T10:27:17.157Z,952.26
2022-11-03T10:28:17.157Z,952.28
2022-11-03T10:29:17.158Z,952.24
2022-11-03T10:30:17.176Z,952.23
2022-11-03T10:31:17.113Z,952.19
2022-11-03T10:32:17.101Z,952.18
2022-11-03T10:33:17.093Z,952.14
2022-11-03T10:34:17.080Z,952.09
2022-11-03T10:35:17.071Z,952.1
2022-11-03T10:36:17.066Z,952.1
2022-11-03T10:37:17.049Z,952.1
2022-11-03T10:38:17.037Z,952.04
2022-11-03T10:39:17.027Z,952.07
2022-11-03T10:40:28.380Z,952.1
2022-11-03T10:41:17.009Z,952.11
2022-11-03T10:42:16.996Z,952.13
2022-11-03T10:43:16.985Z,952.07
2022-11-03T10:44:16.977Z,952.09
2022-11-03T10:45:16.965Z,952.09
2022-11-03T10:46:29.798Z,952.09
2022-11-03T10:47:16.945Z,952.01
2022-11-03T10:48:16.936Z,951.99
2022-11-03T10:49:16.923Z,951.98
2022-11-03T10:50:16.923Z,951.93
2022-11-03T10:51:16.901Z,951.9
2022-11-03T10:52:16.893Z,951.85
2022-11-03T10:53:16.910Z,951.85
2022-11-03T10:54:16.873Z,951.82
2022-11-03T10:55:19.214Z,951.79
2022-11-03T10:56:16.853Z,951.73
2022-11-03T10:57:16.843Z,951.76
2022-11-03T10:58:16.837Z,951.73
2022-11-03T10:59:16.827Z,951.75
2022-11-03T11:00:16.872Z,951.72
2022-11-03T11:01:16.931Z,951.71
2022-11-03T11:02:16.972Z,951.67
2022-11-03T11:03:19.652Z,951.68
2022-11-03T11:04:16.815Z,951.63
2022-11-03T11:05:16.774Z,951.64
2022-11-03T11:06:16.752Z,951.57
2022-11-03T11:07:16.741Z,951.59
2022-11-03T11:08:16.795Z,951.6
2022-11-03T11:09:16.722Z,951.55
2022-11-03T11:10:16.713Z,951.53
2022-11-03T11:11:16.702Z,951.53
2022-11-03T11:12:16.699Z,951.54
2022-11-03T11:13:16.682Z,951.55
2022-11-03T11:14:16.672Z,951.56
2022-11-03T11:15:16.661Z,951.56
2022-11-03T11:16:16.655Z,951.54
2022-11-03T11:17:16.654Z,951.53
2022-11-03T11:18:16.742Z,951.53
2022-11-03T11:19:16.623Z,951.46
2022-11-03T11:20:16.614Z,951.53
2022-11-03T11:21:16.604Z,951.54
2022-11-03T11:22:16.594Z,951.53
2022-11-03T11:23:16.584Z,951.5
2022-11-03T11:24:16.577Z,951.46
2022-11-03T11:25:16.565Z,951.44
2022-11-03T11:26:16.555Z,951.44
2022-11-03T11:27:16.548Z,951.46
2022-11-03T11:28:16.537Z,951.42
2022-11-03T11:29:16.526Z,951.48
2022-11-03T11:30:16.517Z,951.47
2022-11-03T11:31:16.506Z,951.46
2022-11-03T11:32:16.496Z,951.4
2022-11-03T11:33:16.529Z,951.41
2022-11-03T11:34:16.517Z,951.4
2022-11-03T11:35:16.473Z,951.42
2022-11-03T11:36:16.457Z,951.48
2022-11-03T11:37:16.449Z,951.45
2022-11-03T11:38:16.438Z,951.46
2022-11-03T11:39:16.429Z,951.38
2022-11-03T11:40:16.417Z,951.43
2022-11-03T11:41:16.411Z,951.42
2022-11-03T11:42:16.433Z,951.4
2022-11-03T11:43:16.391Z,951.31
2022-11-03T11:44:16.380Z,951.4
2022-11-03T11:45:16.370Z,951.33
2022-11-03T11:46:16.360Z,951.28
2022-11-03T11:47:16.351Z,951.24
2022-11-03T11:48:18.729Z,951.25
2022-11-03T11:49:16.332Z,951.23
2022-11-03T11:50:16.350Z,951.2
2022-11-03T11:51:16.315Z,951.26
2022-11-03T11:52:19.118Z,951.24
2022-11-03T11:53:16.293Z,951.19
2022-11-03T11:54:17.792Z,951.23
2022-11-03T11:55:16.273Z,951.17
2022-11-03T11:56:16.272Z,951.17
2022-11-03T11:57:16.255Z,951.12
2022-11-03T11:58:16.243Z,951.14
2022-11-03T11:59:18.966Z,951.11
2022-11-03T12:00:16.225Z,951.15
2022-11-03T12:01:16.244Z,951.09
2022-11-03T12:02:16.204Z,951.04
2022-11-03T12:03:16.275Z,950.98
2022-11-03T12:04:16.214Z,950.99
2022-11-03T12:05:16.178Z,951.04
2022-11-03T12:06:16.187Z,950.97
2022-11-03T12:07:16.157Z,950.92
2022-11-03T12:08:16.143Z,950.95
2022-11-03T12:09:16.136Z,950.91
2022-11-03T12:10:16.125Z,950.94
2022-11-03T12:11:16.133Z,950.89
2022-11-03T12:12:16.107Z,950.89
2022-11-03T12:13:16.096Z,950.88
2022-11-03T12:14:16.086Z,950.87
2022-11-03T12:15:16.081Z,950.83
2022-11-03T12:16:16.067Z,950.79
2022-11-03T12:17:16.060Z,950.74
2022-11-03T12:18:16.047Z,950.65
2022-11-03T12:19:16.040Z,950.63
2022-11-03T12:20:16.026Z,950.62
2022-11-03T12:21:16.019Z,950.6
2022-11-03T12:22:16.101Z,950.61
2022-11-03T12:23:16.000Z,950.59
2022-11-03T12:24:15.990Z,950.51
2022-11-03T12:25:15.980Z,950.46
2022-11-03T12:26:15.973Z,950.44
2022-11-03T12:27:15.960Z,950.23
2022-11-03T12:28:15.953Z,950.26
2022-11-03T12:29:15.941Z,950.23
2022-11-03T12:30:15.938Z,950.22
2022-11-03T12:31:15.923Z,950.29
2022-11-03T12:32:25.453Z,950.26
2022-11-03T12:33:15.904Z,950.26
2022-11-03T12:34:15.896Z,950.27
2022-11-03T12:35:15.884Z,950.27
2022-11-03T12:36:15.875Z,950.24
2022-11-03T12:37:15.867Z,950.29
2022-11-03T12:38:15.885Z,950.26
2022-11-03T12:39:15.845Z,950.25
2022-11-03T12:40:15.840Z,950.26
2022-11-03T12:41:15.828Z,950.25
2022-11-03T12:42:15.818Z,950.18
2022-11-03T12:43:15.806Z,950.11
2022-11-03T12:44:15.862Z,950.18
2022-11-03T12:45:15.886Z,950.15
2022-11-03T12:46:15.877Z,950.16
2022-11-03T12:47:15.867Z,950.11
2022-11-03T12:48:15.857Z,950.08
2022-11-03T12:49:15.845Z,950.01
2022-11-03T12:50:15.838Z,950